createdAt,value
2022-11-17T00:00:41.911Z,1.60
2022-11-17T00:03:12.695Z,1.83
2022-11-17T00:05:42.273Z,1.85
2022-11-17T00:08:10.474Z,1.70
2022-11-17T00:10:38.665Z,1.40
2022-11-17T00:13:32.705Z,1.63
2022-11-17T00:16:01.229Z,1.40
2022-11-17T00:18:46.553Z,1.70
2022-11-17T00:21:21.184Z,1.70
2022-11-17T00:23:50.206Z,1.30
2022-11-17T00:26:22.252Z,1.42
2022-11-17T00:28:53.867Z,1.50
2022-11-17T00:31:40.329Z,1.40
2022-11-17T00:34:09.021Z,1.40
2022-11-17T00:36:40.577Z,1.30
2022-11-17T00:39:10.604Z,2.10
2022-11-17T00:41:39.130Z,1.40
2022-11-17T00:44:08.194Z,1.50
2022-11-17T00:46:37.267Z,1.40
2022-11-17T00:49:06.176Z,1.10
2022-11-17T00:51:34.780Z,1.20
2022-11-17T00:54:07.139Z,1.10
2022-11-17T00:56:35.522Z,1.10
2022-11-17T00:59:03.846Z,1.40
2022-11-17T01:01:32.551Z,1.23
2022-11-17T01:04:04.177Z,1.80
2022-11-17T01:06:34.668Z,1.40
2022-11-17T01:09:03.632Z,1.27
2022-11-17T01:11:33.459Z,1.70
2022-11-17T01:14:02.653Z,1.67
2022-11-17T01:16:32.251Z,1.60
2022-11-17T01:19:01.505Z,1.60
2022-11-17T01:21:30.784Z,1.57
2022-11-17T01:24:00.166Z,1.50
2022-11-17T01:26:30.167Z,1.30
2022-11-17T01:29:00.385Z,1.40
2022-11-17T01:31:30.845Z,1.60
2022-11-17T01:33:59.481Z,1.55
2022-11-17T01:36:29.624Z,1.58
2022-11-17T01:38:57.866Z,1.48
2022-11-17T01:41:27.735Z,1.50
2022-11-17T01:43:58.031Z,1.80
2022-11-17T01:46:34.074Z,1.50
2022-11-17T01:49:14.047Z,1.40
2022-11-17T01:51:47.075Z,1.30
2022-11-17T01:54:18.893Z,1.40
2022-11-17T01:56:50.455Z,1.10
2022-11-17T01:59:22.091Z,1.40
2022-11-17T02:01:56.645Z,1.40
2022-11-17T02:04:27.476Z,1.70
2022-11-17T02:07:01.855Z,1.50
2022-11-17T02:09:30.599Z,1.23
2022-11-17T02:12:00.656Z,1.58
2022-11-17T02:14:30.026Z,1.30
2022-11-17T02:17:07.005Z,1.40
2022-11-17T02:19:40.221Z,1.48
2022-11-17T02:22:34.976Z,1.40
2022-11-17T02:25:30.897Z,1.40
2022-11-17T02:28:12.565Z,1.30
2022-11-17T02:30:47.871Z,1.40
2022-11-17T02:33:26.963Z,1.20
2022-11-17T02:36:05.961Z,1.50
2022-11-17T02:38:41.728Z,1.20
2022-11-17T02:41:13.237Z,1.30
2022-11-17T02:44:04.182Z,1.50
2022-11-17T02:46:39.620Z,1.30
2022-11-17T02:49:13.611Z,1.20
2022-11-17T02:51:44.191Z,1.10
2022-11-17T02:54:13.525Z,1.20
2022-11-17T02:56:42.896Z,1.23
2022-11-17T02:59:16.930Z,1.10
2022-11-17T03:02:17.251Z,1.42
2022-11-17T03:04:54.321Z,0.90
2022-11-17T03:07:36.920Z,1.40
2022-11-17T03:10:15.035Z,0.80
2022-11-17T03:12:51.132Z,1.38
2022-11-17T03:15:28.396Z,1.10
2022-11-17T03:18:04.381Z,1.00
2022-11-17T03:20:40.680Z,1.00
2022-11-17T03:23:13.413Z,0.95
2022-11-17T03:25:46.192Z,0.90
2022-11-17T03:28:17.149Z,0.97
2022-11-17T03:30:48.639Z,0.80
2022-11-17T03:33:21.128Z,0.90
2022-11-17T03:35:54.002Z,0.82
2022-11-17T03:38:27.900Z,1.08
2022-11-17T03:40:59.025Z,1.20
2022-11-17T03:43:28.754Z,1.00
2022-11-17T03:46:04.318Z,0.90
2022-11-17T03:48:37.281Z,0.70
2022-11-17T03:51:09.354Z,0.95
2022-11-17T03:53:38.041Z,0.85
2022-11-17T03:56:16.023Z,0.90
2022-11-17T03:58:51.294Z,0.90
2022-11-17T04:01:22.057Z,0.90
2022-11-17T04:03:50.347Z,1.00
2022-11-17T04:06:18.537Z,1.00
2022-11-17T04:08:46.788Z,1.10
2022-11-17T04:11:32.495Z,0.80
2022-11-17T04:14:14.710Z,0.70
2022-11-17T04:16:44.305Z,0.60
2022-11-17T04:19:12.577Z,0.70
2022-11-17T04:21:40.802Z,0.80
2022-11-17T04:24:09.819Z,0.70
2022-11-17T04:26:55.462Z,0.80
2022-11-17T04:29:23.733Z,0.80
2022-11-17T04:31:53.245Z,0.70
2022-11-17T04:34:21.573Z,0.90
2022-11-17T04:36:50.875Z,0.60
2022-11-17T04:39:19.334Z,0.87
2022-11-17T04:41:57.285Z,0.70
2022-11-17T04:44:27.446Z,0.70
2022-11-17T04:46:57.661Z,0.70
2022-11-17T04:49:27.171Z,0.60
2022-11-17T04:51:55.799Z,0.70
2022-11-17T04:54:25.646Z,0.70
2022-11-17T04:56:54.774Z,0.60
2022-11-17T04:59:23.248Z,0.60
2022-11-17T05:01:51.661Z,0.60
2022-11-17T05:04:36.436Z,0.70
2022-11-17T05:07:05.866Z,0.70
2022-11-17T05:09:34.307Z,0.80
2022-11-17T05:12:19.758Z,0.60
2022-11-17T05:14:50.419Z,0.60
2022-11-17T05:17:18.206Z,0.50
2022-11-17T05:19:49.183Z,0.63
2022-11-17T05:22:36.747Z,0.82
2022-11-17T05:25:05.901Z,0.60
2022-11-17T05:27:34.770Z,0.60
2022-11-17T05:30:03.129Z,0.70
2022-11-17T05:32:31.439Z,0.60
2022-11-17T05:35:00.982Z,0.70
2022-11-17T05:37:30.121Z,0.63
2022-11-17T05:39:58.956Z,0.60
2022-11-17T05:42:27.537Z,0.70
2022-11-17T05:44:55.715Z,0.80
2022-11-17T05:47:23.916Z,0.70
2022-11-17T05:49:52.075Z,0.70
2022-11-17T05:52:21.628Z,0.70
2022-11-17T05:54:49.866Z,0.60
2022-11-17T05:57:23.985Z,0.70
2022-11-17T05:59:56.782Z,0.80
2022-11-17T06:02:30.152Z,0.60
2022-11-17T06:04:58.506Z,0.70
2022-11-17T06:07:28.158Z,0.60
2022-11-17T06:09:57.467Z,0.90
2022-11-17T06:12:25.641Z,0.95
2022-11-17T06:14:53.872Z,0.90
2022-11-17T06:17:26.395Z,0.70
2022-11-17T06:20:01.402Z,0.80
2022-11-17T06:22:31.877Z,0.90
2022-11-17T06:25:01.216Z,1.00
2022-11-17T06:27:31.749Z,0.90
2022-11-17T06:30:03.389Z,1.00
2022-11-17T06:32:32.598Z,0.80
2022-11-17T06:35:02.119Z,0.90
2022-11-17T06:37:31.671Z,0.80
2022-11-17T06:39:59.865Z,1.57
2022-11-17T06:42:42.261Z,1.10
2022-11-17T06:45:11.606Z,0.80
2022-11-17T06:47:39.951Z,1.00
2022-11-17T06:50:09.067Z,1.20
2022-11-17T06:52:38.938Z,1.30
2022-11-17T06:55:08.629Z,1.58
2022-11-17T06:57:37.001Z,1.50
2022-11-17T07:00:07.086Z,1.20
2022-11-17T07:02:36.692Z,1.30
2022-11-17T07:05:05.323Z,1.67
2022-11-17T07:07:33.580Z,1.45
2022-11-17T07:10:03.253Z,1.23
2022-11-17T07:12:31.594Z,1.50
2022-11-17T07:14:59.757Z,1.30
2022-11-17T07:17:29.089Z,1.40
2022-11-17T07:19:57.367Z,1.20
2022-11-17T07:22:26.152Z,1.60
2022-11-17T07:24:54.370Z,1.40
2022-11-17T07:27:23.962Z,1.40
2022-11-17T07:29:52.203Z,1.80
2022-11-17T07:32:20.389Z,1.40
2022-11-17T07:34:48.636Z,1.40
2022-11-17T07:37:17.088Z,1.60
2022-11-17T07:39:45.317Z,1.90
2022-11-17T07:42:13.626Z,1.60
2022-11-17T07:44:43.234Z,1.40
2022-11-17T07:47:11.447Z,1.27
2022-11-17T07:49:39.765Z,1.10
2022-11-17T07:52:07.987Z,1.30
2022-11-17T07:54:36.175Z,1.50
2022-11-17T07:57:05.094Z,1.50
2022-11-17T07:59:33.334Z,1.50
2022-11-17T08:02:02.889Z,1.40
2022-11-17T08:04:31.126Z,1.10
2022-11-17T08:06:59.668Z,1.42
2022-11-17T08:09:27.926Z,1.30
2022-11-17T08:11:57.555Z,1.00
2022-11-17T08:14:25.794Z,2.00
2022-11-17T08:16:53.976Z,1.50
2022-11-17T08:19:23.456Z,1.05
2022-11-17T08:21:51.581Z,1.30
2022-11-17T08:24:20.263Z,1.30
2022-11-17T08:26:48.428Z,1.20
2022-11-17T08:29:17.168Z,1.20
2022-11-17T08:31:46.273Z,1.10
2022-11-17T08:34:14.702Z,1.10
2022-11-17T08:36:44.207Z,1.08
2022-11-17T08:39:12.414Z,1.20
2022-11-17T08:41:40.615Z,1.00
2022-11-17T08:44:08.996Z,1.10
2022-11-17T08:46:37.231Z,1.50
2022-11-17T08:49:05.434Z,0.80
2022-11-17T08:51:33.632Z,1.15
2022-11-17T08:54:03.234Z,1.00
2022-11-17T08:56:31.423Z,0.90
2022-11-17T08:58:59.627Z,0.70
2022-11-17T09:01:27.921Z,0.80
2022-11-17T09:03:56.205Z,0.73
2022-11-17T09:06:24.387Z,0.70
2022-11-17T09:08:55.031Z,0.70
2022-11-17T09:11:24.743Z,1.00
2022-11-17T09:13:52.986Z,0.73
2022-11-17T09:16:23.908Z,0.70
2022-11-17T09:18:56.979Z,0.90
2022-11-17T09:21:26.184Z,0.70
2022-11-17T09:23:55.334Z,0.90
2022-11-17T09:26:25.066Z,0.80
2022-11-17T09:28:53.310Z,0.90
2022-11-17T09:31:23.083Z,0.80
2022-11-17T09:33:51.361Z,0.93
2022-11-17T09:36:19.802Z,0.70
2022-11-17T09:38:48.122Z,0.80
2022-11-17T09:41:27.397Z,0.75
2022-11-17T09:44:07.028Z,0.80
2022-11-17T09:46:47.470Z,1.30
2022-11-17T09:49:21.722Z,0.80
2022-11-17T09:51:52.007Z,0.80
2022-11-17T09:54:27.888Z,1.00
2022-11-17T09:57:00.180Z,0.70
2022-11-17T09:59:31.064Z,0.93
2022-11-17T10:01:59.699Z,0.90
2022-11-17T10:04:30.687Z,0.80
2022-11-17T10:06:59.510Z,0.80
2022-11-17T10:09:36.165Z,0.73
2022-11-17T10:12:16.235Z,0.82
2022-11-17T10:14:44.787Z,0.90
2022-11-17T10:17:13.635Z,0.70
2022-11-17T10:19:43.991Z,0.70
2022-11-17T10:22:25.733Z,0.80
2022-11-17T10:24:57.876Z,0.70
2022-11-17T10:27:29.010Z,1.10
2022-11-17T10:29:59.314Z,0.90
2022-11-17T10:32:28.277Z,0.70
2022-11-17T10:34:56.723Z,0.80
2022-11-17T10:37:28.390Z,0.70
2022-11-17T10:40:13.745Z,0.70
2022-11-17T10:42:45.812Z,0.60
2022-11-17T10:45:19.110Z,0.60
2022-11-17T10:47:47.402Z,0.80
2022-11-17T10:50:25.219Z,0.90
2022-11-17T10:52:55.823Z,0.70
2022-11-17T10:55:31.511Z,0.70
2022-11-17T10:58:06.224Z,0.80
2022-11-17T11:00:36.451Z,0.80
2022-11-17T11:03:18.166Z,0.80
2022-11-17T11:06:06.990Z,0.77
2022-11-17T11:08:42.313Z,1.05
2022-11-17T11:11:18.381Z,0.60
2022-11-17T11:13:53.763Z,0.90
2022-11-17T11:16:21.979Z,0.70
2022-11-17T11:18:51.958Z,1.10
2022-11-17T11:21:33.273Z,0.70
2022-11-17T11:24:12.717Z,0.90
2022-11-17T11:26:59.187Z,0.70
2022-11-17T11:29:34.832Z,0.80
2022-11-17T11:32:25.097Z,0.60
2022-11-17T11:35:33.087Z,0.70
2022-11-17T11:38:08.435Z,0.60
2022-11-17T11:40:41.075Z,0.65
2022-11-17T11:43:25.006Z,0.73
2022-11-17T11:46:01.816Z,0.60
2022-11-17T11:48:33.960Z,0.67
2022-11-17T11:51:06.802Z,0.70
2022-11-17T11:53:43.906Z,0.50
2022-11-17T11:56:18.116Z,1.10
2022-11-17T11:58:52.784Z,0.60
2022-11-17T12:01:23.884Z,0.70
2022-11-17T12:03:59.339Z,0.70
2022-11-17T12:06:43.860Z,0.90
2022-11-17T12:09:51.489Z,0.70
2022-11-17T12:12:29.814Z,0.70
2022-11-17T12:15:35.266Z,0.70
2022-11-17T12:18:07.946Z,0.80
2022-11-17T12:20:58.856Z,0.60
2022-11-17T12:23:51.996Z,0.60
2022-11-17T12:26:26.534Z,0.60
2022-11-17T12:29:28.804Z,0.60
2022-11-17T12:31:57.896Z,0.88
2022-11-17T12:34:30.984Z,2.80
2022-11-17T12:37:26.241Z,1.00
2022-11-17T12:40:05.909Z,0.80
2022-11-17T12:42:35.118Z,0.70
2022-11-17T12:45:08.299Z,0.60
2022-11-17T12:47:38.800Z,0.70
2022-11-17T12:50:41.228Z,0.80
2022-11-17T12:53:25.851Z,0.70
2022-11-17T12:56:19.087Z,0.60
2022-11-17T12:59:09.050Z,0.70
2022-11-17T13:01:46.702Z,0.60
2022-11-17T13:04:17.940Z,0.60
2022-11-17T13:07:09.224Z,0.70
2022-11-17T13:09:37.882Z,0.60
2022-11-17T13:12:07.743Z,0.70
2022-11-17T13:14:37.432Z,0.65
2022-11-17T13:17:12.284Z,0.63
2022-11-17T13:19:42.138Z,0.70
2022-11-17T13:22:18.720Z,0.60
2022-11-17T13:24:48.679Z,0.60
2022-11-17T13:27:24.295Z,0.70
2022-11-17T13:29:53.034Z,0.60
2022-11-17T13:32:23.928Z,0.70
2022-11-17T13:34:56.298Z,0.80
2022-11-17T13:37:27.642Z,1.07
2022-11-17T13:40:00.736Z,0.70
2022-11-17T13:42:33.821Z,0.65
2022-11-17T13:45:05.563Z,0.82
2022-11-17T13:47:46.255Z,0.90
2022-11-17T13:50:38.107Z,0.70
2022-11-17T13:53:22.953Z,1.00
2022-11-17T13:55:51.446Z,0.70
2022-11-17T13:58:29.229Z,0.90
2022-11-17T14:01:00.044Z,0.63
2022-11-17T14:03:39.258Z,0.77
2022-11-17T14:06:09.360Z,0.68
2022-11-17T14:08:41.160Z,0.60
2022-11-17T14:11:16.696Z,0.70
2022-11-17T14:13:46.821Z,1.00
2022-11-17T14:16:24.924Z,1.00
2022-11-17T14:19:02.365Z,0.80
2022-11-17T14:21:31.710Z,0.80
2022-11-17T14:24:12.922Z,0.80
2022-11-17T14:26:45.472Z,1.60
2022-11-17T14:29:14.563Z,1.00
2022-11-17T14:31:43.202Z,1.30
2022-11-17T14:34:11.742Z,1.20
2022-11-17T14:36:41.142Z,1.02
2022-11-17T14:39:15.526Z,1.40
2022-11-17T14:41:44.484Z,1.20
2022-11-17T14:44:13.081Z,1.00
2022-11-17T14:46:41.735Z,1.37
2022-11-17T14:49:10.556Z,1.30
2022-11-17T14:51:38.898Z,1.50
2022-11-17T14:54:07.295Z,1.27
2022-11-17T14:56:36.860Z,1.00
2022-11-17T14:59:05.142Z,1.02
2022-11-17T15:01:38.470Z,0.90
2022-11-17T15:04:34.624Z,0.90
2022-11-17T15:06:56.984Z,0.90
2022-11-17T15:09:25.255Z,1.00
2022-11-17T15:11:54.885Z,1.50
2022-11-17T15:14:23.887Z,1.40
2022-11-17T15:16:52.092Z,1.33
2022-11-17T15:19:20.458Z,1.20
2022-11-17T15:21:48.743Z,1.20
2022-11-17T15:24:17.236Z,1.30
2022-11-17T15:26:45.892Z,1.08
2022-11-17T15:29:16.220Z,1.20
2022-11-17T15:31:44.975Z,1.60
2022-11-17T15:34:18.765Z,1.52
2022-11-17T15:36:48.598Z,1.50
2022-11-17T15:39:17.645Z,1.20
2022-11-17T15:41:46.291Z,1.20
2022-11-17T15:44:16.211Z,1.20
2022-11-17T15:46:47.643Z,1.17
2022-11-17T15:49:16.527Z,1.20
2022-11-17T15:51:45.288Z,1.30
2022-11-17T15:54:19.876Z,1.13
2022-11-17T15:56:49.020Z,1.77
2022-11-17T15:59:19.026Z,1.73
2022-11-17T16:01:47.933Z,1.90
2022-11-17T16:04:17.227Z,1.50
2022-11-17T16:06:47.076Z,1.80
2022-11-17T16:09:16.138Z,1.60
2022-11-17T16:11:44.934Z,1.80
2022-11-17T16:14:14.826Z,2.10
2022-11-17T16:16:46.772Z,1.90
2022-11-17T16:19:15.430Z,2.65
2022-11-17T16:21:44.513Z,2.25
2022-11-17T16:24:13.200Z,2.20
2022-11-17T16:26:41.430Z,1.60
2022-11-17T16:29:09.923Z,1.90
2022-11-17T16:31:38.751Z,2.20
2022-11-17T16:34:12.904Z,2.25
2022-11-17T16:36:42.801Z,2.25
2022-11-17T16:39:12.953Z,2.60
2022-11-17T16:41:43.310Z,2.92
2022-11-17T16:44:13.985Z,2.88
2022-11-17T16:46:44.117Z,2.73
2022-11-17T16:49:16.006Z,3.17
2022-11-17T16:51:49.371Z,3.33
2022-11-17T16:54:18.879Z,3.70
2022-11-17T16:56:47.640Z,3.88
2022-11-17T16:59:16.566Z,3.70
2022-11-17T17:01:45.388Z,2.97
2022-11-17T17:04:15.017Z,2.85
2022-11-17T17:06:44.547Z,2.47
2022-11-17T17:09:15.033Z,3.10
2022-11-17T17:11:43.636Z,3.20
2022-11-17T17:14:14.834Z,2.65
2022-11-17T17:16:43.751Z,2.50
2022-11-17T17:19:14.910Z,2.40
2022-11-17T17:21:45.449Z,2.40
2022-11-17T17:24:14.075Z,1.73
2022-11-17T17:26:42.887Z,2.00
2022-11-17T17:29:12.134Z,1.45
2022-11-17T17:31:41.785Z,1.60
2022-11-17T17:34:12.541Z,1.73
2022-11-17T17:36:42.117Z,1.70
2022-11-17T17:39:14.642Z,1.65
2022-11-17T17:41:44.445Z,2.22
2022-11-17T17:44:16.793Z,1.90
2022-11-17T17:46:45.955Z,2.03
2022-11-17T17:49:14.648Z,1.90
2022-11-17T17:51:45.416Z,2.20
2022-11-17T17:54:17.076Z,2.00
2022-11-17T17:56:45.683Z,2.00
2022-11-17T17:59:14.590Z,2.10
2022-11-17T18:01:45.898Z,2.50
2022-11-17T18:04:16.286Z,2.78
2022-11-17T18:06:48.018Z,3.50
2022-11-17T18:09:19.370Z,2.80
2022-11-17T18:11:49.999Z,3.00
2022-11-17T18:14:22.398Z,3.25
2022-11-17T18:16:51.224Z,2.60
2022-11-17T18:19:19.864Z,2.30
2022-11-17T18:21:49.532Z,2.15
2022-11-17T18:24:17.948Z,2.17
2022-11-17T18:26:46.148Z,2.22
2022-11-17T18:29:18.278Z,2.35
2022-11-17T18:31:47.667Z,2.73
2022-11-17T18:34:18.755Z,2.97
2022-11-17T18:36:47.260Z,3.35
2022-11-17T18:39:17.223Z,3.42
2022-11-17T18:41:47.037Z,3.22
2022-11-17T18:44:16.951Z,3.80
2022-11-17T18:46:45.373Z,3.17
2022-11-17T18:49:13.844Z,3.95
2022-11-17T18:51:42.582Z,4.05
2022-11-17T18:54:12.020Z,3.70
2022-11-17T18:56:42.065Z,3.95
2022-11-17T18:59:12.361Z,4.30
2022-11-17T19:01:42.264Z,5.22
2022-11-17T19:04:13.853Z,5.33
2022-11-17T19:06:42.411Z,6.13
2022-11-17T19:09:11.155Z,5.43
2022-11-17T19:11:39.370Z,5.47
2022-11-17T19:14:09.056Z,4.47
2022-11-17T19:16:45.293Z,4.20
2022-11-17T19:19:15.188Z,4.95
2022-11-17T19:21:44.407Z,4.57
2022-11-17T19:24:12.818Z,3.90
2022-11-17T19:26:41.085Z,4.30
2022-11-17T19:29:16.659Z,3.83
2022-11-17T19:31:46.985Z,4.57
2022-11-17T19:34:15.643Z,4.90
2022-11-17T19:36:44.575Z,5.40
2022-11-17T19:39:13.616Z,5.63
2022-11-17T19:41:42.482Z,7.00
2022-11-17T19:44:12.327Z,7.07
2022-11-17T19:46:40.474Z,9.77
2022-11-17T19:49:08.749Z,9.18
2022-11-17T19:51:38.076Z,10.23
2022-11-17T19:54:08.654Z,10.30
2022-11-17T19:56:38.318Z,9.02
2022-11-17T19:59:09.687Z,8.10
2022-11-17T20:01:42.095Z,7.50
2022-11-17T20:04:10.388Z,7.13
2022-11-17T20:06:39.852Z,6.18
2022-11-17T20:09:09.346Z,6.78
2022-11-17T20:11:37.642Z,6.77
2022-11-17T20:14:06.113Z,5.80
2022-11-17T20:16:34.721Z,6.07
2022-11-17T20:19:04.437Z,6.30
2022-11-17T20:21:33.656Z,6.60
2022-11-17T20:24:02.410Z,5.63
2022-11-17T20:26:32.346Z,4.90
2022-11-17T20:29:01.453Z,5.05
2022-11-17T20:31:32.715Z,4.80
2022-11-17T20:34:03.578Z,5.13
2022-11-17T20:36:33.293Z,5.00
2022-11-17T20:39:02.790Z,4.75
2022-11-17T20:41:31.454Z,5.03
2022-11-17T20:44:02.966Z,4.50
2022-11-17T20:46:31.124Z,4.90
2022-11-17T20:48:59.433Z,4.63
2022-11-17T20:51:28.983Z,4.57
2022-11-17T20:53:57.198Z,4.72
2022-11-17T20:56:25.354Z,5.57
2022-11-17T20:58:53.618Z,7.33
2022-11-17T21:01:24.199Z,8.93
2022-11-17T21:03:52.970Z,7.93
2022-11-17T21:06:23.098Z,6.95
2022-11-17T21:08:53.200Z,7.15
2022-11-17T21:11:40.386Z,7.53
2022-11-17T21:14:09.796Z,6.97
2022-11-17T21:16:38.938Z,6.85
2022-11-17T21:19:08.564Z,6.50
2022-11-17T21:21:37.444Z,6.63
2022-11-17T21:24:07.854Z,5.60
2022-11-17T21:26:36.275Z,4.90
2022-11-17T21:29:06.721Z,4.45
2022-11-17T21:31:36.206Z,4.10
2022-11-17T21:34:06.354Z,3.40
2022-11-17T21:36:35.923Z,2.92
2022-11-17T21:39:04.668Z,3.22
2022-11-17T21:41:37.820Z,2.57
2022-11-17T21:44:06.545Z,3.10
2022-11-17T21:46:36.309Z,2.65
2022-11-17T21:49:05.141Z,2.60
2022-11-17T21:51:34.884Z,2.78
2022-11-17T21:54:05.264Z,2.80
2022-11-17T21:56:36.344Z,2.80
2022-11-17T21:59:07.157Z,3.10
2022-11-17T22:01:36.826Z,3.00
2022-11-17T22:04:05.701Z,2.70
2022-11-17T22:06:33.908Z,3.17
2022-11-17T22:09:02.292Z,2.78
2022-11-17T22:11:38.570Z,2.85
2022-11-17T22:14:10.520Z,3.20
2022-11-17T22:16:40.354Z,3.40
2022-11-17T22:19:09.703Z,2.90
2022-11-17T22:21:39.557Z,2.30
2022-11-17T22:24:10.462Z,2.60
2022-11-17T22:26:40.973Z,2.22
2022-11-17T22:29:12.695Z,2.55
2022-11-17T22:31:40.936Z,2.60
2022-11-17T22:34:09.374Z,2.70
2022-11-17T22:36:38.003Z,2.00
2022-11-17T22:39:06.453Z,2.22
2022-11-17T22:41:35.036Z,2.20
2022-11-17T22:44:03.192Z,1.92
2022-11-17T22:46:33.021Z,2.10
2022-11-17T22:49:03.283Z,2.00
2022-11-17T22:52:03.779Z,2.25
2022-11-17T22:54:32.340Z,3.22
2022-11-17T22:57:01.264Z,3.92
2022-11-17T22:59:31.035Z,5.45
2022-11-17T23:02:00.592Z,5.80
2022-11-17T23:04:28.784Z,6.65
2022-11-17T23:06:57.164Z,7.88
2022-11-17T23:09:25.505Z,6.68
2022-11-17T23:11:53.708Z,7.40
2022-11-17T23:14:21.850Z,6.95
2022-11-17T23:16:50.003Z,7.32
2022-11-17T23:19:19.988Z,5.35
2022-11-17T23:21:48.854Z,3.72
2022-11-17T23:24:17.169Z,3.65
2022-11-17T23:26:45.339Z,3.70
2022-11-17T23:29:13.883Z,3.00
2022-11-17T23:31:42.269Z,3.10
2022-11-17T23:34:11.213Z,3.17
2022-11-17T23:36:40.794Z,2.60
2022-11-17T23:39:09.213Z,2.10
2022-11-17T23:41:37.377Z,2.42
2022-11-17T23:44:06.040Z,2.28
2022-11-17T23:46:34.156Z,2.43
2022-11-17T23:49:02.591Z,2.30
2022-11-17T23:51:30.986Z,2.30
2022-11-17T23:54:02.706Z,2.40
2022-11-17T23:56:33.610Z,2.10
2022-11-17T23:59:01.984Z,2.55
